Terminal Aerodrome Forecast
Issued by NWS

Home | Current Version | Previous Version | Text Only | Print | Product List | Glossary On
Versions: 1 2 3 4 5 6 7 8 9 10 11 12 13 14 15
000
FTUS41 KBTV 241731
TAFRUT
TAF
KRUT 241731Z 2418/2518 18010G16KT 6SM -SN BR SCT015 OVC025
      TEMPO 2418/2421 3SM -RASN BR BKN015
     FM242100 19007KT 3SM -RASN BR OVC015
     FM250200 VRB03KT P6SM -RA OVC012
     FM250500 VRB03KT P6SM VCSH OVC015
     FM250800 VRB03KT P6SM VCSH OVC020=

USA.gov is the U.S. government's official web portal to all federal, state and local government web resources and services.